Terminal Aerodrome Forecast
Issued by NWS Brownsville, TX

Home | Current Version | Previous Version | Text Only | Print | Product List | Glossary On
Versions: 1 2 3 4 5 6 7 8 9 10 11 12 13 14 15 16 17 18 19 20 21 22
236
FTUS44 KBRO 081720
TAFHRL
TAF
KHRL 081720Z 0818/0918 36020G24KT 4SM RA BR OVC007
      TEMPO 0818/0822 2SM +RA BR
     FM090300 34015G25KT 5SM -RA BR OVC010
     FM090600 34015G20KT P6SM -DZ OVC012
     FM091200 34015KT P6SM -DZ OVC015=

USA.gov is the U.S. government's official web portal to all federal, state and local government web resources and services.